Time;durP1;ratioP1;P1;durP2;ratioP2;P2;SDS_P1;SDS_P2;PMS_P1;PMS_P2;Temp;Humidity;BMP_temperature;BMP_pressure;BME280_temperature;BME280_humidity;BME280_pressure;Samples;Min_cycle;Max_cycle;Signal;HPM_P1;HPM_P2
2023/06/29 00:01:30;;;;;;;32.05;26.55;;;;;;;19.68;99.79;101504.84;5014773;28;20224;-69
2023/06/29 00:03:57;;;;;;;34.45;29.00;;;;;;;19.65;100.00;101511.16;5014797;28;20026;-69
2023/06/29 00:06:22;;;;;;;34.10;27.92;;;;;;;19.61;100.00;101515.88;5014271;28;20084;-69
2023/06/29 00:08:48;;;;;;;34.03;28.10;;;;;;;19.59;100.00;101516.22;5013214;28;20021;-69
2023/06/29 00:11:13;;;;;;;34.38;28.45;;;;;;;19.61;100.00;101521.47;5014623;28;20049;-70
2023/06/29 00:13:38;;;;;;;34.50;28.70;;;;;;;19.57;100.00;101512.94;5014599;28;20029;-68
2023/06/29 00:16:04;;;;;;;34.47;28.10;;;;;;;19.55;100.00;101511.66;5014344;28;20062;-68
2023/06/29 00:18:29;;;;;;;32.88;27.38;;;;;;;19.56;100.00;101502.06;5014439;28;20026;-68
2023/06/29 00:20:56;;;;;;;34.35;27.45;;;;;;;19.54;100.00;101493.19;5014255;28;20366;-68
2023/06/29 00:23:21;;;;;;;33.90;27.77;;;;;;;19.53;100.00;101491.56;5014380;28;20494;-68
2023/06/29 00:25:47;;;;;;;33.83;27.30;;;;;;;19.53;100.00;101502.78;5014341;28;20049;-68
2023/06/29 00:28:13;;;;;;;33.67;27.77;;;;;;;19.52;100.00;101492.72;5014362;28;20034;-68
2023/06/29 00:30:38;;;;;;;33.05;26.65;;;;;;;19.53;100.00;101485.94;5014139;28;20045;-69
2023/06/29 00:33:04;;;;;;;33.78;26.83;;;;;;;19.53;100.00;101488.75;5014025;28;20034;-69
2023/06/29 00:35:29;;;;;;;35.50;28.02;;;;;;;19.50;100.00;101481.84;4999777;28;20090;-69
2023/06/29 00:37:55;;;;;;;33.50;27.40;;;;;;;19.52;100.00;101487.91;4994595;28;20057;-69
2023/06/29 00:40:20;;;;;;;34.97;29.38;;;;;;;19.48;100.00;101479.38;4994434;28;20034;-70
2023/06/29 00:42:45;;;;;;;34.13;28.83;;;;;;;19.49;100.00;101478.22;4994386;28;20061;-69
2023/06/29 00:45:11;;;;;;;37.78;29.67;;;;;;;19.47;100.00;101483.34;4994450;28;20219;-69
2023/06/29 00:47:36;;;;;;;36.15;28.42;;;;;;;19.45;100.00;101477.31;4994230;28;20130;-68
2023/06/29 00:50:02;;;;;;;34.72;29.38;;;;;;;19.45;100.00;101482.06;4994315;28;20030;-69
2023/06/29 00:52:28;;;;;;;36.78;30.30;;;;;;;19.43;100.00;101476.81;4994276;28;20022;-69
2023/06/29 00:54:55;;;;;;;36.38;30.65;;;;;;;19.38;100.00;101471.44;4994278;28;20035;-68
2023/06/29 00:57:20;;;;;;;37.67;31.55;;;;;;;19.42;100.00;101475.19;4994164;28;20034;-68
2023/06/29 00:59:46;;;;;;;36.78;30.98;;;;;;;19.42;100.00;101485.56;4994295;28;20106;-68
2023/06/29 01:02:14;;;;;;;37.67;31.92;;;;;;;19.41;100.00;101475.56;4993951;28;20034;-68
2023/06/29 01:04:40;;;;;;;38.28;31.88;;;;;;;19.38;100.00;101465.81;4994074;28;20423;-68
2023/06/29 01:07:32;;;;;;;36.88;32.63;;;;;;;19.37;100.00;101472.59;4993939;28;20451;-68
2023/06/29 01:09:59;;;;;;;37.67;31.75;;;;;;;19.32;100.00;101473.66;4989438;28;20064;-69
2023/06/29 01:12:26;;;;;;;39.28;32.13;;;;;;;19.29;100.00;101457.56;4993886;28;20037;-69
2023/06/29 01:14:54;;;;;;;35.38;30.98;;;;;;;19.28;100.00;101450.31;4993638;28;20034;-69
2023/06/29 01:17:22;;;;;;;38.03;32.70;;;;;;;19.29;100.00;101465.97;4992957;28;20403;-69
2023/06/29 01:19:50;;;;;;;37.33;32.25;;;;;;;19.22;100.00;101442.47;4993518;28;20031;-69
2023/06/29 01:22:32;;;;;;;39.35;33.05;;;;;;;19.21;100.00;101441.66;4993669;28;20038;-69
2023/06/29 01:24:59;;;;;;;38.45;33.63;;;;;;;19.22;100.00;101440.50;4993625;28;20027;-68
2023/06/29 01:27:25;;;;;;;38.65;32.47;;;;;;;19.24;100.00;101459.78;4993486;28;20026;-69
2023/06/29 01:29:55;;;;;;;39.63;32.78;;;;;;;19.21;100.00;101440.81;4993246;28;20054;-68
2023/06/29 01:32:20;;;;;;;37.13;31.80;;;;;;;19.22;100.00;101456.50;4993609;28;20085;-68
2023/06/29 01:34:45;;;;;;;37.28;31.33;;;;;;;19.21;100.00;101446.44;4993419;28;20025;-68
2023/06/29 01:37:18;;;;;;;36.85;32.50;;;;;;;19.19;100.00;101460.81;4993309;28;20033;-68
2023/06/29 01:39:55;;;;;;;36.67;31.30;;;;;;;19.22;100.00;101459.28;4993060;28;20030;-68
2023/06/29 01:42:22;;;;;;;36.40;31.00;;;;;;;19.20;100.00;101462.47;4993232;28;20143;-68
2023/06/29 01:44:48;;;;;;;36.22;30.58;;;;;;;19.20;100.00;101458.81;4992997;28;20030;-68
2023/06/29 01:47:15;;;;;;;36.97;30.63;;;;;;;19.19;100.00;101449.59;4993266;28;20026;-68
2023/06/29 01:49:41;;;;;;;37.30;31.23;;;;;;;19.17;100.00;101438.75;4993130;28;20096;-68
2023/06/29 01:52:07;;;;;;;38.95;30.60;;;;;;;19.14;100.00;101447.00;4992968;28;20026;-69
2023/06/29 01:54:33;;;;;;;35.78;30.55;;;;;;;19.15;100.00;101445.84;4992790;28;20749;-69
2023/06/29 01:56:58;;;;;;;37.75;30.85;;;;;;;19.10;100.00;101443.28;4991634;28;20024;-68
2023/06/29 01:59:23;;;;;;;36.95;30.20;;;;;;;19.14;100.00;101441.41;4992828;28;20049;-68
2023/06/29 02:01:49;;;;;;;38.30;32.10;;;;;;;19.12;100.00;101429.75;4992900;28;20037;-69
2023/06/29 02:04:14;;;;;;;36.22;30.42;;;;;;;19.11;100.00;101436.53;4992912;28;20433;-68
2023/06/29 02:06:39;;;;;;;36.78;31.38;;;;;;;19.09;100.00;101422.81;4992830;28;20502;-68
2023/06/29 02:09:05;;;;;;;37.38;31.00;;;;;;;19.10;100.00;101440.50;4992705;28;20399;-68
2023/06/29 02:11:30;;;;;;;38.15;30.90;;;;;;;19.10;100.00;101423.66;4992819;28;20546;-69
2023/06/29 02:13:56;;;;;;;35.65;31.17;;;;;;;19.09;100.00;101436.03;4992700;28;20077;-69
2023/06/29 02:16:21;;;;;;;37.10;30.88;;;;;;;19.10;100.00;101423.66;4992662;28;20081;-68
2023/06/29 02:18:46;;;;;;;37.67;31.17;;;;;;;19.09;100.00;101428.44;4992672;28;20442;-68
2023/06/29 02:21:13;;;;;;;36.80;31.80;;;;;;;19.07;100.00;101441.19;4992478;28;20023;-68
2023/06/29 02:23:38;;;;;;;36.55;31.60;;;;;;;19.07;100.00;101439.22;4992451;28;20026;-69
2023/06/29 02:26:03;;;;;;;37.70;30.65;;;;;;;19.05;100.00;101429.50;4992492;28;20076;-69
2023/06/29 02:28:28;;;;;;;35.70;29.98;;;;;;;19.04;100.00;101433.47;4992203;28;20023;-68
2023/06/29 02:30:54;;;;;;;38.85;31.30;;;;;;;19.01;100.00;101426.56;4992301;28;20509;-68
2023/06/29 02:33:19;;;;;;;36.33;30.13;;;;;;;19.02;100.00;101429.03;4992495;28;20030;-69
2023/06/29 02:35:44;;;;;;;39.33;31.35;;;;;;;19.01;100.00;101415.34;4992551;28;20034;-69
2023/06/29 02:38:10;;;;;;;37.38;30.23;;;;;;;19.00;100.00;101408.94;4992403;28;20194;-69
2023/06/29 02:40:35;;;;;;;36.25;30.63;;;;;;;19.00;100.00;101411.75;4992478;28;20398;-69
2023/06/29 02:43:00;;;;;;;37.00;31.48;;;;;;;19.00;100.00;101406.13;4992414;28;20387;-69
2023/06/29 02:45:25;;;;;;;35.95;30.83;;;;;;;18.99;100.00;101410.09;4992581;28;20034;-69
2023/06/29 02:47:51;;;;;;;36.03;31.80;;;;;;;18.97;100.00;101406.84;4992422;28;20402;-69
2023/06/29 02:50:16;;;;;;;37.08;30.33;;;;;;;18.96;100.00;101401.59;4992379;28;20036;-69
2023/06/29 02:52:41;;;;;;;37.95;31.48;;;;;;;18.95;100.00;101395.16;4992189;28;20033;-69
2023/06/29 02:55:07;;;;;;;36.55;31.10;;;;;;;18.95;100.00;101411.16;4992145;28;20088;-69
2023/06/29 02:57:32;;;;;;;37.33;30.70;;;;;;;18.97;100.00;101394.81;4991033;28;20391;-70
2023/06/29 02:59:58;;;;;;;35.83;30.75;;;;;;;18.96;100.00;101395.97;4992187;28;20566;-69
2023/06/29 03:02:23;;;;;;;38.05;31.30;;;;;;;18.95;100.00;101400.75;4992178;28;20488;-69
2023/06/29 03:04:48;;;;;;;36.35;30.70;;;;;;;18.96;100.00;101393.97;4991890;28;20031;-69
2023/06/29 03:07:14;;;;;;;35.65;30.35;;;;;;;18.97;100.00;101392.81;4992099;28;20022;-69
2023/06/29 03:09:39;;;;;;;36.30;30.25;;;;;;;18.95;100.00;101389.53;4990807;28;20034;-69
2023/06/29 03:12:05;;;;;;;35.50;30.58;;;;;;;18.93;100.00;101391.06;4992037;28;20490;-69
2023/06/29 03:14:30;;;;;;;36.17;31.42;;;;;;;18.90;100.00;101402.94;4992209;28;20032;-68
2023/06/29 03:16:56;;;;;;;36.13;29.42;;;;;;;18.90;100.00;101391.72;4992073;28;20101;-68
2023/06/29 03:19:21;;;;;;;37.97;31.38;;;;;;;18.89;100.00;101406.94;4992031;28;20066;-68
2023/06/29 03:21:46;;;;;;;36.35;31.27;;;;;;;18.88;100.00;101394.88;4990767;28;20062;-68
2023/06/29 03:24:12;;;;;;;37.50;31.45;;;;;;;18.89;100.00;101390.91;4992023;28;20030;-68
2023/06/29 03:26:37;;;;;;;36.60;31.08;;;;;;;18.88;100.00;101394.06;4990693;28;20026;-68
2023/06/29 03:29:02;;;;;;;37.58;31.52;;;;;;;18.88;100.00;101388.47;4990558;28;20767;-68
2023/06/29 03:31:28;;;;;;;36.10;31.45;;;;;;;18.88;100.00;101382.88;4991759;28;20034;-68
2023/06/29 03:33:53;;;;;;;37.10;30.88;;;;;;;18.86;100.00;101380.41;4991763;28;20471;-68
2023/06/29 03:36:19;;;;;;;37.92;31.23;;;;;;;18.89;100.00;101387.31;4991645;28;20092;-68
2023/06/29 03:38:45;;;;;;;36.45;31.65;;;;;;;18.86;100.00;101383.19;4991838;28;20034;-68
2023/06/29 03:41:10;;;;;;;39.17;31.02;;;;;;;18.84;100.00;101380.75;4992742;28;20069;-68
2023/06/29 03:43:36;;;;;;;36.28;30.05;;;;;;;18.84;100.00;101380.75;4995073;28;20035;-68
2023/06/29 03:46:01;;;;;;;37.10;31.25;;;;;;;18.85;100.00;101381.56;4995059;28;20033;-68
2023/06/29 03:48:27;;;;;;;37.40;30.42;;;;;;;18.86;100.00;101374.78;4993739;28;20027;-68
2023/06/29 03:50:57;;;;;;;38.10;32.08;;;;;;;18.85;100.00;101379.59;4994923;28;20076;-68
2023/06/29 03:53:22;;;;;;;38.05;31.38;;;;;;;18.84;100.00;101371.53;4993861;28;20085;-69
2023/06/29 03:55:48;;;;;;;36.45;30.92;;;;;;;18.84;100.00;101379.94;4995014;28;20483;-68
2023/06/29 03:58:15;;;;;;;36.58;31.33;;;;;;;18.83;100.00;101372.72;4993648;28;20478;-69
2023/06/29 04:00:40;;;;;;;37.25;30.88;;;;;;;18.85;100.00;101371.19;4995020;28;20038;-69
2023/06/29 04:03:05;;;;;;;36.75;29.48;;;;;;;18.87;100.00;101373.63;4993242;28;20033;-69
2023/06/29 04:05:31;;;;;;;37.70;31.45;;;;;;;18.86;100.00;101370.00;4994846;28;20033;-69
2023/06/29 04:07:56;;;;;;;39.00;30.50;;;;;;;18.88;100.00;101366.03;4994929;28;20022;-69
2023/06/29 04:10:21;;;;;;;39.25;32.08;;;;;;;18.86;100.00;101374.78;4993453;28;20030;-69
2023/06/29 04:12:47;;;;;;;38.85;31.08;;;;;;;18.86;100.00;101370.00;4994815;28;20490;-69
2023/06/29 04:15:12;;;;;;;39.38;31.58;;;;;;;18.85;100.00;101364.75;4994771;28;20377;-69
2023/06/29 04:17:37;;;;;;;37.92;31.35;;;;;;;18.87;100.00;101362.41;4994683;28;20029;-70
2023/06/29 04:20:03;;;;;;;37.75;30.30;;;;;;;18.89;100.00;101362.09;4994533;28;20026;-68
2023/06/29 04:22:29;;;;;;;38.33;31.13;;;;;;;18.94;100.00;101354.25;4994473;28;20038;-68
2023/06/29 04:24:54;;;;;;;38.03;32.25;;;;;;;18.98;100.00;101362.81;4994983;28;20025;-69
2023/06/29 04:27:20;;;;;;;37.75;31.80;;;;;;;19.02;100.00;101350.53;4993171;28;20026;-69
2023/06/29 04:29:45;;;;;;;39.67;32.55;;;;;;;19.04;100.00;101357.75;4994485;28;20050;-69
2023/06/29 04:32:10;;;;;;;39.65;31.33;;;;;;;19.08;100.00;101362.31;4994611;28;20375;-69
2023/06/29 04:34:36;;;;;;;39.53;32.55;;;;;;;19.09;100.00;101360.34;4994599;28;20026;-69
2023/06/29 04:37:02;;;;;;;38.38;31.40;;;;;;;19.12;100.00;101354.03;4994330;28;20054;-69
2023/06/29 04:39:27;;;;;;;39.72;33.08;;;;;;;19.09;100.00;101355.53;4994189;28;20027;-68
2023/06/29 04:42:01;;;;;;;38.35;33.22;;;;;;;19.08;100.00;101355.88;4994246;28;20440;-69
2023/06/29 04:44:31;;;;;;;37.42;31.60;;;;;;;19.04;100.00;101355.78;4994331;28;20118;-70
2023/06/29 04:47:00;;;;;;;38.00;32.35;;;;;;;19.08;100.00;101355.88;4994576;28;20034;-70
2023/06/29 04:49:31;;;;;;;40.65;33.35;;;;;;;19.08;100.00;101348.28;4994166;28;20034;-69
2023/06/29 04:51:59;;;;;;;37.13;30.98;;;;;;;19.11;100.00;101346.78;4974429;28;20046;-69
2023/06/29 04:54:25;;;;;;;38.28;31.58;;;;;;;19.13;100.00;101342.44;4974895;28;20133;-69
2023/06/29 04:56:50;;;;;;;39.92;32.05;;;;;;;19.14;100.00;101337.66;4974701;28;20471;-69
2023/06/29 04:59:16;;;;;;;40.72;33.05;;;;;;;19.15;100.00;101350.50;4974441;28;20035;-69
2023/06/29 05:01:41;;;;;;;40.53;32.10;;;;;;;19.17;100.00;101342.56;4989381;28;20117;-68
2023/06/29 05:04:06;;;;;;;37.60;31.77;;;;;;;19.15;100.00;101345.72;4974428;28;20055;-69
2023/06/29 05:06:31;;;;;;;40.63;32.78;;;;;;;19.21;100.00;101357.53;4974459;28;20069;-69
2023/06/29 05:08:57;;;;;;;38.30;31.08;;;;;;;19.20;100.00;101352.25;4989147;28;20026;-68
2023/06/29 05:11:22;;;;;;;38.85;31.48;;;;;;;19.22;100.00;101347.09;4974546;28;20023;-67
2023/06/29 05:13:47;;;;;;;36.83;31.08;;;;;;;19.24;100.00;101351.19;4989014;28;20532;-66
2023/06/29 05:16:13;;;;;;;39.45;32.40;;;;;;;19.26;100.00;101340.44;4974370;28;20042;-66
2023/06/29 05:18:38;;;;;;;40.05;32.13;;;;;;;19.32;100.00;101341.00;4974371;28;20065;-66
2023/06/29 05:21:03;;;;;;;38.42;31.77;;;;;;;19.37;100.00;101345.56;4974225;28;20027;-65
2023/06/29 05:23:29;;;;;;;40.00;31.98;;;;;;;19.37;100.00;101337.94;4974157;28;20412;-66
2023/06/29 05:25:54;;;;;;;37.70;30.92;;;;;;;19.38;100.00;101339.59;4974063;28;20129;-66
2023/06/29 05:28:19;;;;;;;40.40;31.00;;;;;;;19.41;100.00;101343.69;4974066;28;20026;-65
2023/06/29 05:30:45;;;;;;;37.22;30.48;;;;;;;19.40;100.00;101334.44;4973862;28;20069;-65
2023/06/29 05:33:10;;;;;;;37.70;30.15;;;;;;;19.42;100.00;101340.53;4973920;28;20482;-66
2023/06/29 05:35:35;;;;;;;38.00;29.35;;;;;;;19.45;100.00;101342.63;4974049;28;20058;-65
2023/06/29 05:38:01;;;;;;;37.60;29.73;;;;;;;19.46;100.00;101332.22;4974081;28;20039;-66
2023/06/29 05:40:27;;;;;;;36.80;28.55;;;;;;;19.49;100.00;101334.31;4989050;28;20556;-66
2023/06/29 05:42:52;;;;;;;38.05;28.67;;;;;;;19.51;100.00;101337.56;4979183;28;20114;-65
2023/06/29 05:45:17;;;;;;;36.00;28.70;;;;;;;19.50;100.00;101338.75;4974124;28;20081;-65
2023/06/29 05:47:43;;;;;;;34.28;26.80;;;;;;;19.53;100.00;101328.81;4977644;28;20097;-65
2023/06/29 05:50:08;;;;;;;35.65;27.02;;;;;;;19.55;100.00;101334.88;4981968;28;20447;-65
2023/06/29 05:52:34;;;;;;;34.50;27.23;;;;;;;19.57;100.00;101329.69;4974326;28;20498;-67
2023/06/29 05:55:00;;;;;;;36.70;28.20;;;;;;;19.61;100.00;101334.25;4972352;28;20144;-64
2023/06/29 05:57:26;;;;;;;36.40;26.52;;;;;;;19.63;100.00;101334.72;4973604;28;20146;-66
2023/06/29 05:59:51;;;;;;;38.33;28.02;;;;;;;19.61;100.00;101336.25;4973557;28;20113;-67
2023/06/29 06:02:17;;;;;;;36.90;27.30;;;;;;;19.64;100.00;101332.75;4973557;28;20031;-67
2023/06/29 06:04:42;;;;;;;37.72;27.13;;;;;;;19.68;100.00;101327.22;4972880;28;20034;-68
2023/06/29 06:07:08;;;;;;;36.03;27.20;;;;;;;19.72;100.00;101333.75;4973532;28;20030;-68
2023/06/29 06:09:33;;;;;;;35.97;28.10;;;;;;;19.77;100.00;101325.88;4973470;28;20030;-68
2023/06/29 06:11:58;;;;;;;35.85;26.77;;;;;;;19.83;100.00;101320.84;4973316;28;20445;-68
2023/06/29 06:14:24;;;;;;;36.72;26.73;;;;;;;19.92;100.00;101331.94;4973202;28;20053;-68
2023/06/29 06:16:49;;;;;;;35.45;27.85;;;;;;;19.94;100.00;101324.78;4973410;28;20018;-67
2023/06/29 06:19:15;;;;;;;35.53;26.95;;;;;;;19.97;100.00;101328.84;4973347;28;20061;-67
2023/06/29 06:21:40;;;;;;;35.50;28.25;;;;;;;20.01;100.00;101335.41;4972059;28;20110;-67
2023/06/29 06:24:05;;;;;;;37.42;27.35;;;;;;;20.03;100.00;101332.22;4973366;28;20026;-69
2023/06/29 06:26:31;;;;;;;35.60;27.00;;;;;;;20.04;99.82;101333.88;4973300;28;20038;-67
2023/06/29 06:28:56;;;;;;;35.85;28.52;;;;;;;20.10;100.00;101332.41;4994383;28;20458;-67
2023/06/29 06:31:22;;;;;;;35.28;27.77;;;;;;;20.18;98.45;101333.44;5012428;28;20022;-66
2023/06/29 06:33:47;;;;;;;35.45;27.80;;;;;;;20.26;98.18;101332.44;5012161;28;20466;-65
2023/06/29 06:36:12;;;;;;;35.63;26.70;;;;;;;20.33;96.54;101335.44;5012372;28;20037;-66
2023/06/29 06:38:38;;;;;;;36.70;27.77;;;;;;;20.41;95.47;101334.44;5012258;28;20033;-63
2023/06/29 06:41:03;;;;;;;34.67;26.63;;;;;;;20.50;95.36;101334.25;5012187;28;20026;-63
2023/06/29 06:43:28;;;;;;;37.05;27.15;;;;;;;20.55;94.24;101330.38;5012139;28;20474;-68
2023/06/29 06:45:54;;;;;;;33.95;26.27;;;;;;;20.59;93.42;101336.91;5012076;28;20109;-65
2023/06/29 06:48:19;;;;;;;34.35;27.33;;;;;;;20.65;92.49;101326.19;4999551;28;20027;-66
2023/06/29 06:50:45;;;;;;;35.08;27.58;;;;;;;20.71;91.74;101342.41;4991762;28;20029;-67
2023/06/29 06:53:10;;;;;;;32.83;24.88;;;;;;;20.76;89.95;101343.34;4992166;28;20061;-67
2023/06/29 06:55:36;;;;;;;33.75;24.85;;;;;;;20.85;89.41;101336.34;4990204;28;20033;-66
2023/06/29 06:58:01;;;;;;;32.10;24.02;;;;;;;20.97;88.05;101337.41;4991936;28;20100;-66
2023/06/29 07:00:27;;;;;;;32.13;24.90;;;;;;;21.04;87.54;101335.59;4990583;28;20026;-66
2023/06/29 07:02:52;;;;;;;31.33;24.15;;;;;;;21.15;87.05;101335.84;4991792;28;20062;-66
2023/06/29 07:05:18;;;;;;;32.72;24.35;;;;;;;21.27;86.40;101332.06;4991255;28;20109;-67
2023/06/29 07:07:45;;;;;;;32.25;24.73;;;;;;;21.40;85.85;101323.50;4995183;28;20064;-67
2023/06/29 07:10:12;;;;;;;33.05;24.67;;;;;;;21.55;85.12;101330.25;5011254;28;20425;-67
2023/06/29 07:12:37;;;;;;;30.75;24.15;;;;;;;21.72;83.46;101335.47;5011256;28;20036;-65
2023/06/29 07:15:03;;;;;;;33.10;24.27;;;;;;;21.87;82.35;101321.69;5010676;28;20018;-67
2023/06/29 07:17:28;;;;;;;32.30;24.00;;;;;;;22.01;82.13;101321.94;5015349;28;20042;-66
2023/06/29 07:19:53;;;;;;;31.38;24.05;;;;;;;22.14;81.36;101325.38;5015226;28;20057;-66
2023/06/29 07:22:20;;;;;;;32.10;23.58;;;;;;;22.21;80.57;101325.50;5013662;28;20105;-66
2023/06/29 07:24:45;;;;;;;30.98;22.67;;;;;;;22.27;79.74;101323.19;5014820;28;20034;-66
2023/06/29 07:27:11;;;;;;;30.08;22.90;;;;;;;22.35;78.64;101332.59;5014803;28;20033;-66
2023/06/29 07:29:36;;;;;;;30.08;22.48;;;;;;;22.40;77.22;101323.84;5013944;28;20084;-65
2023/06/29 07:32:01;;;;;;;30.67;22.67;;;;;;;22.46;76.88;101328.00;5013987;28;20113;-66
2023/06/29 07:34:27;;;;;;;30.90;22.52;;;;;;;22.39;75.90;101322.19;5014063;28;20036;-64
2023/06/29 07:36:52;;;;;;;30.67;21.55;;;;;;;22.42;76.31;101329.94;5014530;28;20529;-66
2023/06/29 07:39:17;;;;;;;30.27;22.35;;;;;;;22.45;75.54;101320.72;5014428;28;20099;-66
2023/06/29 07:41:43;;;;;;;31.73;23.38;;;;;;;22.49;75.86;101323.59;5014459;28;20029;-65
2023/06/29 07:44:08;;;;;;;28.80;22.50;;;;;;;22.58;75.96;101327.78;5014114;28;20096;-65
2023/06/29 07:46:34;;;;;;;30.90;21.98;;;;;;;22.69;74.84;101321.50;5013886;28;20413;-67
2023/06/29 07:48:59;;;;;;;30.20;23.10;;;;;;;22.69;73.48;101324.31;5014119;28;20033;-66
2023/06/29 07:51:26;;;;;;;29.90;23.15;;;;;;;22.79;73.53;101320.88;5014070;28;20526;-66
2023/06/29 07:53:52;;;;;;;31.38;23.17;;;;;;;22.77;71.96;101319.63;5014223;28;20034;-66
2023/06/29 07:56:18;;;;;;;30.65;22.48;;;;;;;22.67;72.45;101319.06;5014142;28;20035;-65
2023/06/29 07:58:43;;;;;;;29.67;21.45;;;;;;;22.79;72.48;101315.22;5013940;28;20357;-65
2023/06/29 08:01:09;;;;;;;29.35;22.13;;;;;;;;;;5012853;28;20026;-66
2023/06/29 08:03:34;;;;;;;30.55;22.10;;;;;;;23.04;71.66;101304.31;5014284;28;20033;-65
2023/06/29 08:05:59;;;;;;;29.73;22.67;;;;;;;23.36;70.84;101311.63;5013568;28;20152;-66
2023/06/29 08:08:28;;;;;;;29.75;22.23;;;;;;;23.60;68.67;101310.31;5014308;28;20041;-65
2023/06/29 08:10:55;;;;;;;30.90;22.45;;;;;;;23.73;67.79;101305.19;5014471;28;20080;-67
2023/06/29 08:13:20;;;;;;;31.75;22.95;;;;;;;23.81;67.10;101303.28;5014094;28;20041;-67
2023/06/29 08:15:45;;;;;;;28.98;21.58;;;;;;;23.82;66.35;101302.09;5014644;28;20030;-67
2023/06/29 08:18:10;;;;;;;30.90;22.80;;;;;;;23.76;66.93;101300.78;5014347;28;20026;-67
2023/06/29 08:20:36;;;;;;;31.20;22.20;;;;;;;23.72;66.34;101295.09;5013865;28;20482;-66
2023/06/29 08:23:01;;;;;;;31.45;23.58;;;;;;;23.69;66.05;101295.91;5013766;28;20059;-66
2023/06/29 08:25:27;;;;;;;30.38;21.58;;;;;;;23.68;66.99;101295.06;5013606;28;20022;-67
2023/06/29 08:27:52;;;;;;;30.52;22.40;;;;;;;23.65;67.63;101290.22;5012785;28;20033;-67
2023/06/29 08:30:18;;;;;;;31.33;23.13;;;;;;;23.68;66.84;101294.25;5013379;28;20120;-67
2023/06/29 08:32:43;;;;;;;29.25;21.83;;;;;;;23.75;65.96;101305.63;5000357;28;20030;-67
2023/06/29 08:35:09;;;;;;;30.50;21.65;;;;;;;23.71;63.87;101301.94;4992681;28;20048;-67
2023/06/29 08:37:35;;;;;;;30.73;22.17;;;;;;;23.68;63.84;101305.56;4993575;28;20036;-67
2023/06/29 08:40:00;;;;;;;28.27;21.60;;;;;;;23.67;64.08;101304.72;4993515;28;20041;-67
2023/06/29 08:42:26;;;;;;;30.73;23.33;;;;;;;23.72;64.38;101306.41;4993410;28;20050;-68
2023/06/29 08:44:52;;;;;;;33.13;22.50;;;;;;;23.81;64.96;101303.28;4993376;28;20045;-67
2023/06/29 08:47:18;;;;;;;30.05;22.00;;;;;;;23.83;64.48;101303.72;5003471;28;20034;-68
2023/06/29 08:49:45;;;;;;;31.13;22.23;;;;;;;23.73;64.10;101293.91;5013335;28;20433;-67
2023/06/29 08:52:15;;;;;;;30.50;22.20;;;;;;;23.72;64.52;101303.56;5012952;28;20041;-66
2023/06/29 08:54:42;;;;;;;30.85;22.52;;;;;;;23.80;63.87;101296.00;5013065;28;20041;-67
2023/06/29 08:57:07;;;;;;;30.77;22.13;;;;;;;23.86;64.46;101297.28;5013138;28;20029;-67
2023/06/29 08:59:34;;;;;;;31.23;22.83;;;;;;;23.89;64.29;101302.16;5012808;28;20358;-66
2023/06/29 09:01:59;;;;;;;31.20;22.73;;;;;;;23.85;62.82;101292.84;5013155;28;20481;-67
2023/06/29 09:04:25;;;;;;;30.75;22.73;;;;;;;23.93;63.48;101294.53;5011935;28;20040;-67
2023/06/29 09:06:55;;;;;;;30.23;22.33;;;;;;;23.95;62.64;101297.81;5012702;28;20081;-67
2023/06/29 09:09:21;;;;;;;30.33;22.00;;;;;;;24.05;63.62;101289.81;5012832;28;20085;-67
2023/06/29 09:11:47;;;;;;;30.80;23.23;;;;;;;24.03;63.63;101295.88;5012516;28;20529;-67
2023/06/29 09:14:12;;;;;;;29.95;23.40;;;;;;;24.08;63.84;101289.88;5012251;28;20036;-66
2023/06/29 09:16:52;;;;;;;31.23;23.65;;;;;;;24.11;63.65;101282.63;5012331;28;20026;-66
2023/06/29 09:19:18;;;;;;;28.48;22.38;;;;;;;24.12;62.38;101289.91;5012302;28;20034;-66
2023/06/29 09:21:48;;;;;;;30.77;22.50;;;;;;;24.13;61.63;101278.19;5012356;28;20022;-67
2023/06/29 09:24:14;;;;;;;29.85;22.23;;;;;;;24.26;61.83;101281.53;5011949;28;20083;-67
2023/06/29 09:26:40;;;;;;;32.10;22.65;;;;;;;24.36;60.30;101277.19;5012219;28;20034;-66
2023/06/29 09:29:05;;;;;;;30.17;21.50;;;;;;;24.37;59.48;101292.13;5011972;28;20041;-66
2023/06/29 09:31:35;;;;;;;28.60;21.42;;;;;;;24.48;60.63;101292.22;5012308;28;20030;-65
2023/06/29 09:34:18;;;;;;;27.27;19.77;;;;;;;24.48;60.20;101292.22;5012753;28;20116;-66
2023/06/29 09:36:44;;;;;;;;;;;;;;;24.64;60.20;101287.09;5013324;28;20053;-65
2023/06/29 09:39:10;;;;;;;28.50;21.20;;;;;;;24.65;59.28;101285.91;5010275;28;19967;-66
2023/06/29 09:41:51;;;;;;;28.52;20.58;;;;;;;24.77;59.97;101285.59;5012034;28;20030;-65
2023/06/29 09:44:19;;;;;;;29.40;21.55;;;;;;;24.75;59.21;101275.88;5012140;28;20034;-65
2023/06/29 09:46:48;;;;;;;29.60;21.77;;;;;;;24.96;59.61;101286.53;4994358;28;20462;-66
2023/06/29 09:49:14;;;;;;;28.38;21.58;;;;;;;25.00;59.16;101287.38;5011862;28;20029;-67
2023/06/29 09:51:40;;;;;;;29.65;21.58;;;;;;;24.97;59.01;101282.47;5011912;28;20037;-66
2023/06/29 09:54:10;;;;;;;28.95;21.13;;;;;;;24.96;58.48;101292.19;5011918;28;20025;-66
2023/06/29 09:56:37;;;;;;;30.80;20.70;;;;;;;24.95;59.35;101287.72;5012419;28;20030;-65
2023/06/29 09:59:03;;;;;;;29.48;21.38;;;;;;;24.99;59.24;101290.56;5011618;28;20401;-66
2023/06/29 10:01:28;;;;;;;30.55;22.10;;;;;;;24.90;59.16;101294.56;5011608;28;20051;-67
2023/06/29 10:03:55;;;;;;;29.75;21.67;;;;;;;24.89;59.72;101292.13;5011562;28;20107;-67
2023/06/29 10:06:30;;;;;;;29.60;21.10;;;;;;;24.86;59.06;101276.78;5009994;28;20025;-66
2023/06/29 10:08:58;;;;;;;28.42;20.80;;;;;;;24.84;58.65;101292.53;5011940;28;20466;-65
2023/06/29 10:11:28;;;;;;;29.00;20.70;;;;;;;24.76;57.91;101283.97;5011605;28;20034;-66
2023/06/29 10:14:02;;;;;;;28.27;20.35;;;;;;;24.76;57.04;101286.00;5004787;28;20027;-66
2023/06/29 10:16:32;;;;;;;29.77;21.77;;;;;;;24.71;58.12;101289.19;4991813;28;20893;-67
2023/06/29 10:19:22;;;;;;;29.90;22.63;;;;;;;24.67;57.38;101285.50;4991845;28;20029;-66
2023/06/29 10:22:01;;;;;;;30.55;22.35;;;;;;;24.52;57.73;101278.94;4990714;28;20034;-66
2023/06/29 10:24:32;;;;;;;29.55;22.48;;;;;;;24.70;57.04;101288.38;5004693;28;20112;-66
2023/06/29 10:27:00;;;;;;;28.10;21.63;;;;;;;24.83;56.61;101288.88;5011418;28;20032;-67
2023/06/29 10:29:26;;;;;;;28.65;21.38;;;;;;;24.94;56.80;101288.13;5011244;28;20049;-67
2023/06/29 10:31:58;;;;;;;31.25;23.25;;;;;;;24.93;56.98;101287.31;5011358;28;20109;-66
2023/06/29 10:34:26;;;;;;;31.23;22.77;;;;;;;24.90;57.04;101288.91;5011401;28;20033;-66
2023/06/29 10:36:58;;;;;;;29.67;22.52;;;;;;;24.84;57.19;101287.66;5010913;28;20508;-66
2023/06/29 10:39:41;;;;;;;30.55;22.42;;;;;;;25.05;58.26;101284.16;5011015;28;20052;-66
2023/06/29 10:42:22;;;;;;;31.92;23.52;;;;;;;25.08;57.54;101294.69;5011058;28;20037;-66
2023/06/29 10:44:47;;;;;;;31.45;23.17;;;;;;;25.03;57.05;101283.72;4996914;28;20109;-66
2023/06/29 10:47:36;;;;;;;30.65;23.15;;;;;;;25.07;58.43;101287.41;4991391;28;20437;-66
2023/06/29 10:50:11;;;;;;;30.33;22.40;;;;;;;25.05;58.25;101286.97;4992399;28;20029;-66
2023/06/29 10:52:37;;;;;;;31.95;24.77;;;;;;;24.93;58.18;101281.66;4995214;28;20065;-66
2023/06/29 10:55:19;;;;;;;31.10;23.42;;;;;;;24.99;59.33;101277.25;4995229;28;20036;-66
2023/06/29 10:57:46;;;;;;;31.52;22.52;;;;;;;24.92;58.65;101274.38;5005688;28;20030;-65
2023/06/29 11:00:29;;;;;;;31.77;24.08;;;;;;;24.97;58.68;101271.16;5015210;28;20025;-66
2023/06/29 11:02:54;;;;;;;31.58;23.90;;;;;;;24.98;58.91;101274.81;5001284;28;20065;-66